sensor_id;sensor_type;location;lat;lon;timestamp;temperature;humidity
39621;DHT22;25309;48.686;9.170;2022-10-16T03:01:23;15.30;99.90
39621;DHT22;25309;48.686;9.170;2022-10-16T03:03:50;15.30;99.90
39621;DHT22;25309;48.686;9.170;2022-10-16T03:06:17;15.30;99.90
39621;DHT22;25309;48.686;9.170;2022-10-16T03:08:44;15.30;99.90
39621;DHT22;25309;48.686;9.170;2022-10-16T03:11:11;15.30;99.90
39621;DHT22;25309;48.686;9.170;2022-10-16T03:13:38;15.30;99.90
39621;DHT22;25309;48.686;9.170;2022-10-16T03:16:05;15.30;99.90
39621;DHT22;25309;48.686;9.170;2022-10-16T03:18:34;15.30;99.90
39621;DHT22;25309;48.686;9.170;2022-10-16T03:21:01;15.30;99.90
39621;DHT22;25309;48.686;9.170;2022-10-16T03:23:28;15.30;99.90
39621;DHT22;25309;48.686;9.170;2022-10-16T03:25:56;15.30;99.90
39621;DHT22;25309;48.686;9.170;2022-10-16T03:28:23;15.30;99.90
39621;DHT22;25309;48.686;9.170;2022-10-16T03:30:50;15.30;99.90
39621;DHT22;25309;48.686;9.170;2022-10-16T03:33:17;15.30;99.90
39621;DHT22;25309;48.686;9.170;2022-10-16T03:35:51;15.30;99.90
39621;DHT22;25309;48.686;9.170;2022-10-16T03:38:18;15.40;99.90
39621;DHT22;25309;48.686;9.170;2022-10-16T03:40:45;15.40;99.90
39621;DHT22;25309;48.686;9.170;2022-10-16T03:43:12;15.40;99.90
39621;DHT22;25309;48.686;9.170;2022-10-16T03:45:40;15.40;99.90
39621;DHT22;25309;48.686;9.170;2022-10-16T03:48:07;15.40;99.90
39621;DHT22;25309;48.686;9.170;2022-10-16T03:50:34;15.40;99.90
39621;DHT22;25309;48.686;9.170;2022-10-16T03:53:03;15.40;99.90
39621;DHT22;25309;48.686;9.170;2022-10-16T03:55:30;15.40;99.90
39621;DHT22;25309;48.686;9.170;2022-10-16T03:57:57;15.40;99.90
39621;DHT22;25309;48.686;9.170;2022-10-16T04:00:24;15.40;99.90
39621;DHT22;25309;48.686;9.170;2022-10-16T04:02:51;15.30;99.90
39621;DHT22;25309;48.686;9.170;2022-10-16T04:05:18;15.30;99.90
39621;DHT22;25309;48.686;9.170;2022-10-16T04:07:44;15.40;99.90
39621;DHT22;25309;48.686;9.170;2022-10-16T04:10:13;15.40;99.90
39621;DHT22;25309;48.686;9.170;2022-10-16T04:12:40;15.40;99.90
39621;DHT22;25309;48.686;9.170;2022-10-16T04:15:07;15.40;99.90
39621;DHT22;25309;48.686;9.170;2022-10-16T04:17:34;15.30;99.90
39621;DHT22;25309;48.686;9.170;2022-10-16T04:20:02;15.30;99.90
39621;DHT22;25309;48.686;9.170;2022-10-16T04:22:29;15.30;99.90
39621;DHT22;25309;48.686;9.170;2022-10-16T04:24:56;15.40;99.90
39621;DHT22;25309;48.686;9.170;2022-10-16T04:27:25;15.30;99.90
39621;DHT22;25309;48.686;9.170;2022-10-16T04:29:52;15.40;99.90
39621;DHT22;25309;48.686;9.170;2022-10-16T04:32:19;15.40;99.90
39621;DHT22;25309;48.686;9.170;2022-10-16T04:34:46;15.40;99.90
39621;DHT22;25309;48.686;9.170;2022-10-16T04:37:13;15.40;99.90
39621;DHT22;25309;48.686;9.170;2022-10-16T04:39:40;15.40;99.90
39621;DHT22;25309;48.686;9.170;2022-10-16T04:42:06;15.40;99.90
39621;DHT22;25309;48.686;9.170;2022-10-16T04:44:35;15.40;99.90
39621;DHT22;25309;48.686;9.170;2022-10-16T04:47:02;15.40;99.90
39621;DHT22;25309;48.686;9.170;2022-10-16T04:49:29;15.40;99.90
39621;DHT22;25309;48.686;9.170;2022-10-16T04:51:56;15.40;99.90
39621;DHT22;25309;48.686;9.170;2022-10-16T04:54:23;15.40;99.90
39621;DHT22;25309;48.686;9.170;2022-10-16T04:56:50;15.40;99.90
39621;DHT22;25309;48.686;9.170;2022-10-16T04:59:19;15.40;99.90
39621;DHT22;25309;48.686;9.170;2022-10-16T05:01:48;15.30;99.90
39621;DHT22;25309;48.686;9.170;2022-10-16T05:04:15;15.30;99.90
39621;DHT22;25309;48.686;9.170;2022-10-16T05:06:43;15.30;99.90
39621;DHT22;25309;48.686;9.170;2022-10-16T05:09:10;15.40;99.90
39621;DHT22;25309;48.686;9.170;2022-10-16T05:11:37;15.40;99.90
39621;DHT22;25309;48.686;9.170;2022-10-16T05:14:04;15.50;99.90
39621;DHT22;25309;48.686;9.170;2022-10-16T05:16:31;15.50;99.90
39621;DHT22;25309;48.686;9.170;2022-10-16T05:18:59;15.50;99.90
39621;DHT22;25309;48.686;9.170;2022-10-16T05:21:46;15.40;99.90
39621;DHT22;25309;48.686;9.170;2022-10-16T05:24:13;15.50;99.90
39621;DHT22;25309;48.686;9.170;2022-10-16T05:26:40;15.40;99.90
39621;DHT22;25309;48.686;9.170;2022-10-16T05:29:08;15.40;99.90
39621;DHT22;25309;48.686;9.170;2022-10-16T05:31:35;15.40;99.90
39621;DHT22;25309;48.686;9.170;2022-10-16T05:34:03;15.30;99.90
39621;DHT22;25309;48.686;9.170;2022-10-16T05:36:30;15.30;99.90
39621;DHT22;25309;48.686;9.170;2022-10-16T05:38:57;15.30;99.90
39621;DHT22;25309;48.686;9.170;2022-10-16T05:41:24;15.30;99.90
39621;DHT22;25309;48.686;9.170;2022-10-16T05:43:52;15.20;99.90
39621;DHT22;25309;48.686;9.170;2022-10-16T05:46:20;15.20;99.90
39621;DHT22;25309;48.686;9.170;2022-10-16T05:48:46;15.20;99.90
39621;DHT22;25309;48.686;9.170;2022-10-16T05:51:15;15.20;99.90
39621;DHT22;25309;48.686;9.170;2022-10-16T05:53:42;15.20;99.90
39621;DHT22;25309;48.686;9.170;2022-10-16T05:56:11;15.30;99.90
39621;DHT22;25309;48.686;9.170;2022-10-16T05:58:39;15.30;99.90
39621;DHT22;25309;48.686;9.170;2022-10-16T06:01:09;15.30;99.90
39621;DHT22;25309;48.686;9.170;2022-10-16T06:03:36;15.30;99.90
39621;DHT22;25309;48.686;9.170;2022-10-16T06:06:10;15.30;99.90
39621;DHT22;25309;48.686;9.170;2022-10-16T06:08:40;15.30;99.90
39621;DHT22;25309;48.686;9.170;2022-10-16T06:11:09;15.40;99.90
39621;DHT22;25309;48.686;9.170;2022-10-16T06:13:36;15.40;99.90
39621;DHT22;25309;48.686;9.170;2022-10-16T06:16:04;15.40;99.90
39621;DHT22;25309;48.686;9.170;2022-10-16T06:18:31;15.50;99.90
39621;DHT22;25309;48.686;9.170;2022-10-16T06:20:58;15.50;99.90
39621;DHT22;25309;48.686;9.170;2022-10-16T06:23:25;15.50;99.90
39621;DHT22;25309;48.686;9.170;2022-10-16T06:26:04;15.50;99.90
39621;DHT22;25309;48.686;9.170;2022-10-16T06:28:31;15.60;99.90
39621;DHT22;25309;48.686;9.170;2022-10-16T06:30:59;15.60;99.90
39621;DHT22;25309;48.686;9.170;2022-10-16T06:33:33;15.70;99.90
39621;DHT22;25309;48.686;9.170;2022-10-16T06:36:00;15.70;99.90
39621;DHT22;25309;48.686;9.170;2022-10-16T06:38:27;15.70;99.90
39621;DHT22;25309;48.686;9.170;2022-10-16T06:40:56;15.80;99.90
39621;DHT22;25309;48.686;9.170;2022-10-16T06:43:23;15.80;99.90
39621;DHT22;25309;48.686;9.170;2022-10-16T06:45:51;15.90;99.90
39621;DHT22;25309;48.686;9.170;2022-10-16T06:48:19;16.00;99.90
39621;DHT22;25309;48.686;9.170;2022-10-16T06:50:55;15.90;99.90
39621;DHT22;25309;48.686;9.170;2022-10-16T06:53:22;16.00;99.90
39621;DHT22;25309;48.686;9.170;2022-10-16T06:55:50;16.00;99.90
39621;DHT22;25309;48.686;9.170;2022-10-16T06:58:18;16.00;99.90
39621;DHT22;25309;48.686;9.170;2022-10-16T07:00:45;16.10;99.90
39621;DHT22;25309;48.686;9.170;2022-10-16T07:03:13;16.10;99.90
39621;DHT22;25309;48.686;9.170;2022-10-16T07:05:40;16.10;99.90
39621;DHT22;25309;48.686;9.170;2022-10-16T07:08:08;16.10;99.90
39621;DHT22;25309;48.686;9.170;2022-10-16T07:10:35;16.20;99.90
39621;DHT22;25309;48.686;9.170;2022-10-16T07:13:02;16.20;99.90
39621;DHT22;25309;48.686;9.170;2022-10-16T07:15:31;16.30;99.90
39621;DHT22;25309;48.686;9.170;2022-10-16T07:17:58;16.30;99.90
39621;DHT22;25309;48.686;9.170;2022-10-16T07:20:25;16.40;99.90
39621;DHT22;25309;48.686;9.170;2022-10-16T07:22:52;16.40;99.90
39621;DHT22;25309;48.686;9.170;2022-10-16T07:25:19;16.40;99.90
39621;DHT22;25309;48.686;9.170;2022-10-16T07:27:46;16.50;99.90
39621;DHT22;25309;48.686;9.170;2022-10-16T07:30:13;16.50;99.90
39621;DHT22;25309;48.686;9.170;2022-10-16T07:32:41;16.50;99.90
39621;DHT22;25309;48.686;9.170;2022-10-16T07:35:08;16.50;99.90
39621;DHT22;25309;48.686;9.170;2022-10-16T07:37:35;16.50;99.90
39621;DHT22;25309;48.686;9.170;2022-10-16T07:40:03;16.60;99.90
39621;DHT22;25309;48.686;9.170;2022-10-16T07:42:30;16.60;99.90
39621;DHT22;25309;48.686;9.170;2022-10-16T07:44:57;16.60;99.90
39621;DHT22;25309;48.686;9.170;2022-10-16T07:47:24;16.70;99.90
39621;DHT22;25309;48.686;9.170;2022-10-16T07:49:53;16.70;99.90
39621;DHT22;25309;48.686;9.170;2022-10-16T07:52:20;16.70;99.90
39621;DHT22;25309;48.686;9.170;2022-10-16T07:54:47;16.70;99.90
39621;DHT22;25309;48.686;9.170;2022-10-16T07:57:14;16.70;99.90
39621;DHT22;25309;48.686;9.170;2022-10-16T07:59:45;16.80;99.90
39621;DHT22;25309;48.686;9.170;2022-10-16T08:02:12;16.80;99.90
39621;DHT22;25309;48.686;9.170;2022-10-16T08:04:40;16.80;99.90
39621;DHT22;25309;48.686;9.170;2022-10-16T08:07:08;16.90;99.90
39621;DHT22;25309;48.686;9.170;2022-10-16T08:09:35;16.90;99.90
39621;DHT22;25309;48.686;9.170;2022-10-16T08:12:02;16.90;99.90
39621;DHT22;25309;48.686;9.170;2022-10-16T08:14:30;17.00;99.90
39621;DHT22;25309;48.686;9.170;2022-10-16T08:16:57;16.90;99.90
39621;DHT22;25309;48.686;9.170;2022-10-16T08:19:24;17.00;99.90
39621;DHT22;25309;48.686;9.170;2022-10-16T08:21:51;17.00;99.90
39621;DHT22;25309;48.686;9.170;2022-10-16T08:24:20;17.00;99.90
39621;DHT22;25309;48.686;9.170;2022-10-16T08:26:47;17.00;99.90
39621;DHT22;25309;48.686;9.170;2022-10-16T08:29:14;17.10;99.90
39621;DHT22;25309;48.686;9.170;2022-10-16T08:31:41;17.20;99.90
39621;DHT22;25309;48.686;9.170;2022-10-16T08:34:08;17.30;99.90
39621;DHT22;25309;48.686;9.170;2022-10-16T08:36:35;17.50;99.90
39621;DHT22;25309;48.686;9.170;2022-10-16T08:39:02;17.60;99.90
39621;DHT22;25309;48.686;9.170;2022-10-16T08:41:57;17.60;99.90
39621;DHT22;25309;48.686;9.170;2022-10-16T08:44:37;17.60;99.90
39621;DHT22;25309;48.686;9.170;2022-10-16T08:47:17;17.60;99.90
39621;DHT22;25309;48.686;9.170;2022-10-16T08:49:55;17.70;99.90
39621;DHT22;25309;48.686;9.170;2022-10-16T08:52:27;17.70;99.90
39621;DHT22;25309;48.686;9.170;2022-10-16T08:54:56;17.70;99.90
39621;DHT22;25309;48.686;9.170;2022-10-16T08:57:25;17.70;99.90
39621;DHT22;25309;48.686;9.170;2022-10-16T08:59:53;17.60;99.90
39621;DHT22;25309;48.686;9.170;2022-10-16T09:02:31;17.60;99.90
39621;DHT22;25309;48.686;9.170;2022-10-16T09:05:28;17.70;99.90
39621;DHT22;25309;48.686;9.170;2022-10-16T09:08:05;17.80;99.90
39621;DHT22;25309;48.686;9.170;2022-10-16T09:10:47;18.00;99.90
39621;DHT22;25309;48.686;9.170;2022-10-16T09:13:23;18.10;99.90
39621;DHT22;25309;48.686;9.170;2022-10-16T09:15:58;18.10;99.90
39621;DHT22;25309;48.686;9.170;2022-10-16T09:18:32;18.20;99.90
39621;DHT22;25309;48.686;9.170;2022-10-16T09:21:07;18.20;99.90
39621;DHT22;25309;48.686;9.170;2022-10-16T09:23:37;18.30;99.90
39621;DHT22;25309;48.686;9.170;2022-10-16T09:26:05;18.40;99.90
39621;DHT22;25309;48.686;9.170;2022-10-16T09:28:37;18.50;99.90
39621;DHT22;25309;48.686;9.170;2022-10-16T09:31:04;19.00;99.90
39621;DHT22;25309;48.686;9.170;2022-10-16T09:33:35;19.90;99.90
39621;DHT22;25309;48.686;9.170;2022-10-16T09:36:05;20.70;99.90
39621;DHT22;25309;48.686;9.170;2022-10-16T09:38:34;21.40;99.90
39621;DHT22;25309;48.686;9.170;2022-10-16T09:41:10;21.80;99.90
39621;DHT22;25309;48.686;9.170;2022-10-16T09:43:46;22.00;99.90
39621;DHT22;25309;48.686;9.170;2022-10-16T09:46:24;22.20;99.90
39621;DHT22;25309;48.686;9.170;2022-10-16T09:48:54;22.70;99.90
39621;DHT22;25309;48.686;9.170;2022-10-16T09:51:24;23.20;99.90
39621;DHT22;25309;48.686;9.170;2022-10-16T09:53:55;23.80;99.90
39621;DHT22;25309;48.686;9.170;2022-10-16T09:56:24;24.40;99.90
39621;DHT22;25309;48.686;9.170;2022-10-16T09:58:54;24.90;99.90
39621;DHT22;25309;48.686;9.170;2022-10-16T10:01:24;24.90;99.90
39621;DHT22;25309;48.686;9.170;2022-10-16T10:03:56;25.00;99.90
39621;DHT22;25309;48.686;9.170;2022-10-16T10:06:29;25.00;99.90
39621;DHT22;25309;48.686;9.170;2022-10-16T10:09:01;24.90;99.90
39621;DHT22;25309;48.686;9.170;2022-10-16T10:11:53;24.90;99.90
39621;DHT22;25309;48.686;9.170;2022-10-16T10:14:27;24.80;99.90
39621;DHT22;25309;48.686;9.170;2022-10-16T10:17:12;24.80;99.90
39621;DHT22;25309;48.686;9.170;2022-10-16T10:19:41;25.00;99.90
39621;DHT22;25309;48.686;9.170;2022-10-16T10:22:29;25.00;99.90
39621;DHT22;25309;48.686;9.170;2022-10-16T10:28:10;25.30;99.90
39621;DHT22;25309;48.686;9.170;2022-10-16T10:30:51;25.70;99.90
39621;DHT22;25309;48.686;9.170;2022-10-16T10:33:25;25.90;99.90
39621;DHT22;25309;48.686;9.170;2022-10-16T10:36:02;25.90;99.90
39621;DHT22;25309;48.686;9.170;2022-10-16T10:38:38;25.70;99.90
39621;DHT22;25309;48.686;9.170;2022-10-16T10:44:05;25.60;99.90
39621;DHT22;25309;48.686;9.170;2022-10-16T10:46:41;25.30;99.90
39621;DHT22;25309;48.686;9.170;2022-10-16T10:49:28;25.10;99.90
39621;DHT22;25309;48.686;9.170;2022-10-16T10:52:07;24.90;99.90
39621;DHT22;25309;48.686;9.170;2022-10-16T10:54:45;24.90;99.90
39621;DHT22;25309;48.686;9.170;2022-10-16T10:57:22;24.90;99.90
39621;DHT22;25309;48.686;9.170;2022-10-16T11:00:03;25.10;99.90
39621;DHT22;25309;48.686;9.170;2022-10-16T11:02:38;25.40;99.90
39621;DHT22;25309;48.686;9.170;2022-10-16T11:05:28;25.50;99.90
39621;DHT22;25309;48.686;9.170;2022-10-16T11:08:00;25.70;99.90
39621;DHT22;25309;48.686;9.170;2022-10-16T11:10:33;25.80;99.90
39621;DHT22;25309;48.686;9.170;2022-10-16T11:13:20;26.10;99.40
39621;DHT22;25309;48.686;9.170;2022-10-16T11:15:51;26.40;97.80
39621;DHT22;25309;48.686;9.170;2022-10-16T11:18:24;26.80;98.40
39621;DHT22;25309;48.686;9.170;2022-10-16T11:20:56;27.10;97.70
39621;DHT22;25309;48.686;9.170;2022-10-16T11:23:28;27.30;95.70
39621;DHT22;25309;48.686;9.170;2022-10-16T11:26:00;27.20;95.60
39621;DHT22;25309;48.686;9.170;2022-10-16T11:28:33;27.20;95.80
39621;DHT22;25309;48.686;9.170;2022-10-16T11:31:05;27.10;95.50
39621;DHT22;25309;48.686;9.170;2022-10-16T11:33:39;27.10;95.70
39621;DHT22;25309;48.686;9.170;2022-10-16T11:36:12;27.20;95.80
39621;DHT22;25309;48.686;9.170;2022-10-16T11:38:48;27.50;95.90
39621;DHT22;25309;48.686;9.170;2022-10-16T11:41:22;27.50;94.70
39621;DHT22;25309;48.686;9.170;2022-10-16T11:43:58;27.30;94.60
39621;DHT22;25309;48.686;9.170;2022-10-16T11:46:31;27.20;94.00
39621;DHT22;25309;48.686;9.170;2022-10-16T11:49:06;27.30;94.40
39621;DHT22;25309;48.686;9.170;2022-10-16T11:51:39;27.60;95.40
39621;DHT22;25309;48.686;9.170;2022-10-16T11:54:18;27.90;93.80
39621;DHT22;25309;48.686;9.170;2022-10-16T11:56:50;28.10;94.40
39621;DHT22;25309;48.686;9.170;2022-10-16T11:59:23;28.20;93.80
39621;DHT22;25309;48.686;9.170;2022-10-16T12:01:58;28.40;93.70
39621;DHT22;25309;48.686;9.170;2022-10-16T12:04:33;28.70;93.90
39621;DHT22;25309;48.686;9.170;2022-10-16T12:07:05;28.90;91.90
39621;DHT22;25309;48.686;9.170;2022-10-16T12:09:38;28.90;91.50
39621;DHT22;25309;48.686;9.170;2022-10-16T12:12:24;28.90;91.70
39621;DHT22;25309;48.686;9.170;2022-10-16T12:15:00;28.80;91.60
39621;DHT22;25309;48.686;9.170;2022-10-16T12:17:48;28.60;91.00
39621;DHT22;25309;48.686;9.170;2022-10-16T12:20:22;28.40;91.30
39621;DHT22;25309;48.686;9.170;2022-10-16T12:22:52;28.30;91.40
39621;DHT22;25309;48.686;9.170;2022-10-16T12:25:25;28.00;91.30
39621;DHT22;25309;48.686;9.170;2022-10-16T12:28:00;27.70;92.20
39621;DHT22;25309;48.686;9.170;2022-10-16T12:30:30;27.80;92.60
39621;DHT22;25309;48.686;9.170;2022-10-16T12:33:03;27.90;92.30
39621;DHT22;25309;48.686;9.170;2022-10-16T12:35:34;27.80;91.90
39621;DHT22;25309;48.686;9.170;2022-10-16T12:38:15;27.50;91.50
39621;DHT22;25309;48.686;9.170;2022-10-16T12:40:44;27.10;92.20
39621;DHT22;25309;48.686;9.170;2022-10-16T12:43:27;26.60;93.10
39621;DHT22;25309;48.686;9.170;2022-10-16T12:46:03;26.30;92.80
39621;DHT22;25309;48.686;9.170;2022-10-16T12:48:31;26.30;93.00
39621;DHT22;25309;48.686;9.170;2022-10-16T12:51:34;26.30;93.30
39621;DHT22;25309;48.686;9.170;2022-10-16T12:54:03;26.20;93.40
39621;DHT22;25309;48.686;9.170;2022-10-16T12:56:40;26.10;94.50
39621;DHT22;25309;48.686;9.170;2022-10-16T12:59:16;26.10;94.30
39621;DHT22;25309;48.686;9.170;2022-10-16T13:02:02;26.10;94.80
39621;DHT22;25309;48.686;9.170;2022-10-16T13:04:50;26.10;95.00
39621;DHT22;25309;48.686;9.170;2022-10-16T13:07:45;26.10;95.10
39621;DHT22;25309;48.686;9.170;2022-10-16T13:10:21;26.20;95.00
39621;DHT22;25309;48.686;9.170;2022-10-16T13:13:13;26.30;94.20
39621;DHT22;25309;48.686;9.170;2022-10-16T13:15:59;26.50;94.90
39621;DHT22;25309;48.686;9.170;2022-10-16T13:18:36;26.60;94.90
39621;DHT22;25309;48.686;9.170;2022-10-16T13:21:18;26.70;94.30
39621;DHT22;25309;48.686;9.170;2022-10-16T13:23:53;26.70;94.10
39621;DHT22;25309;48.686;9.170;2022-10-16T13:26:29;26.70;94.20
39621;DHT22;25309;48.686;9.170;2022-10-16T13:28:59;26.70;94.40
39621;DHT22;25309;48.686;9.170;2022-10-16T13:31:28;26.50;94.40
39621;DHT22;25309;48.686;9.170;2022-10-16T13:33:58;26.40;95.00
39621;DHT22;25309;48.686;9.170;2022-10-16T13:36:28;26.30;93.30
39621;DHT22;25309;48.686;9.170;2022-10-16T13:39:12;26.10;94.70
39621;DHT22;25309;48.686;9.170;2022-10-16T13:41:39;26.10;95.20
39621;DHT22;25309;48.686;9.170;2022-10-16T13:44:12;26.10;94.40
39621;DHT22;25309;48.686;9.170;2022-10-16T13:46:41;26.20;94.90
39621;DHT22;25309;48.686;9.170;2022-10-16T13:49:13;26.10;93.90
39621;DHT22;25309;48.686;9.170;2022-10-16T13:51:41;26.00;94.90
39621;DHT22;25309;48.686;9.170;2022-10-16T13:54:11;25.90;94.00
39621;DHT22;25309;48.686;9.170;2022-10-16T13:56:39;25.90;93.80
39621;DHT22;25309;48.686;9.170;2022-10-16T13:59:23;25.80;94.60
39621;DHT22;25309;48.686;9.170;2022-10-16T14:01:52;25.70;95.30
39621;DHT22;25309;48.686;9.170;2022-10-16T14:04:21;25.70;96.00
39621;DHT22;25309;48.686;9.170;2022-10-16T14:06:50;25.60;96.30
39621;DHT22;25309;48.686;9.170;2022-10-16T14:09:22;25.60;95.70
39621;DHT22;25309;48.686;9.170;2022-10-16T14:11:52;25.50;95.00
39621;DHT22;25309;48.686;9.170;2022-10-16T14:14:20;25.50;94.80
39621;DHT22;25309;48.686;9.170;2022-10-16T14:16:47;25.40;94.90
39621;DHT22;25309;48.686;9.170;2022-10-16T14:19:19;25.40;95.00
39621;DHT22;25309;48.686;9.170;2022-10-16T14:21:47;25.40;94.60
39621;DHT22;25309;48.686;9.170;2022-10-16T14:24:26;25.30;95.00
39621;DHT22;25309;48.686;9.170;2022-10-16T14:26:54;25.30;95.40
39621;DHT22;25309;48.686;9.170;2022-10-16T14:29:25;25.30;94.30
39621;DHT22;25309;48.686;9.170;2022-10-16T14:31:57;25.30;96.10
39621;DHT22;25309;48.686;9.170;2022-10-16T14:34:26;25.20;95.00
39621;DHT22;25309;48.686;9.170;2022-10-16T14:36:54;25.20;95.60
39621;DHT22;25309;48.686;9.170;2022-10-16T14:39:23;25.20;96.30
39621;DHT22;25309;48.686;9.170;2022-10-16T14:41:56;25.30;96.00
39621;DHT22;25309;48.686;9.170;2022-10-16T14:44:28;25.30;96.20
39621;DHT22;25309;48.686;9.170;2022-10-16T14:46:55;25.40;95.80
39621;DHT22;25309;48.686;9.170;2022-10-16T14:49:23;25.40;96.40
39621;DHT22;25309;48.686;9.170;2022-10-16T14:51:51;25.50;96.30
39621;DHT22;25309;48.686;9.170;2022-10-16T14:54:18;25.50;96.40
39621;DHT22;25309;48.686;9.170;2022-10-16T14:56:48;25.50;96.50
39621;DHT22;25309;48.686;9.170;2022-10-16T14:59:20;25.40;96.30
39621;DHT22;25309;48.686;9.170;2022-10-16T15:01:48;25.30;96.60
39621;DHT22;25309;48.686;9.170;2022-10-16T15:04:15;25.30;96.50
39621;DHT22;25309;48.686;9.170;2022-10-16T15:06:43;25.30;96.60
39621;DHT22;25309;48.686;9.170;2022-10-16T15:09:10;25.30;96.90
39621;DHT22;25309;48.686;9.170;2022-10-16T15:11:37;25.30;97.20
39621;DHT22;25309;48.686;9.170;2022-10-16T15:14:04;25.30;96.70
39621;DHT22;25309;48.686;9.170;2022-10-16T15:16:33;25.30;96.90
39621;DHT22;25309;48.686;9.170;2022-10-16T15:18:59;25.30;96.90
39621;DHT22;25309;48.686;9.170;2022-10-16T15:21:29;25.30;97.00
39621;DHT22;25309;48.686;9.170;2022-10-16T15:23:56;25.30;97.30
39621;DHT22;25309;48.686;9.170;2022-10-16T15:26:24;25.30;97.10
39621;DHT22;25309;48.686;9.170;2022-10-16T15:28:51;25.30;97.10
39621;DHT22;25309;48.686;9.170;2022-10-16T15:31:18;25.30;96.80
39621;DHT22;25309;48.686;9.170;2022-10-16T15:33:48;25.30;97.20
39621;DHT22;25309;48.686;9.170;2022-10-16T15:36:27;25.20;97.10
39621;DHT22;25309;48.686;9.170;2022-10-16T15:38:54;25.10;97.10
39621;DHT22;25309;48.686;9.170;2022-10-16T15:41:21;24.90;97.60
39621;DHT22;25309;48.686;9.170;2022-10-16T15:43:49;24.90;97.60
39621;DHT22;25309;48.686;9.170;2022-10-16T15:46:19;24.80;97.60
39621;DHT22;25309;48.686;9.170;2022-10-16T15:48:48;24.60;98.10
39621;DHT22;25309;48.686;9.170;2022-10-16T15:51:15;24.50;97.80
39621;DHT22;25309;48.686;9.170;2022-10-16T15:53:43;24.40;97.80
39621;DHT22;25309;48.686;9.170;2022-10-16T15:56:10;24.30;98.00
39621;DHT22;25309;48.686;9.170;2022-10-16T15:58:38;24.20;98.30
39621;DHT22;25309;48.686;9.170;2022-10-16T16:01:05;24.10;98.00
39621;DHT22;25309;48.686;9.170;2022-10-16T16:03:33;23.90;98.40
39621;DHT22;25309;48.686;9.170;2022-10-16T16:06:05;23.80;98.50
39621;DHT22;25309;48.686;9.170;2022-10-16T16:08:33;23.60;98.60
39621;DHT22;25309;48.686;9.170;2022-10-16T16:11:01;23.50;99.00
39621;DHT22;25309;48.686;9.170;2022-10-16T16:13:29;23.30;99.20
39621;DHT22;25309;48.686;9.170;2022-10-16T16:15:56;23.20;99.20
39621;DHT22;25309;48.686;9.170;2022-10-16T16:18:23;23.10;99.20
39621;DHT22;25309;48.686;9.170;2022-10-16T16:20:51;23.00;99.50
39621;DHT22;25309;48.686;9.170;2022-10-16T16:23:19;22.90;99.70
39621;DHT22;25309;48.686;9.170;2022-10-16T16:26:02;22.80;99.90
39621;DHT22;25309;48.686;9.170;2022-10-16T16:28:29;22.70;99.90
39621;DHT22;25309;48.686;9.170;2022-10-16T16:30:57;22.60;99.90
39621;DHT22;25309;48.686;9.170;2022-10-16T16:33:24;22.50;99.90
39621;DHT22;25309;48.686;9.170;2022-10-16T16:35:50;22.40;99.90
39621;DHT22;25309;48.686;9.170;2022-10-16T16:38:23;22.30;99.90
39621;DHT22;25309;48.686;9.170;2022-10-16T16:40:50;22.20;99.90
39621;DHT22;25309;48.686;9.170;2022-10-16T16:43:23;22.20;99.90
39621;DHT22;25309;48.686;9.170;2022-10-16T16:45:50;22.10;99.90
39621;DHT22;25309;48.686;9.170;2022-10-16T16:48:18;22.00;99.90
39621;DHT22;25309;48.686;9.170;2022-10-16T16:50:45;21.90;99.90
39621;DHT22;25309;48.686;9.170;2022-10-16T16:53:12;21.80;99.90
39621;DHT22;25309;48.686;9.170;2022-10-16T16:55:40;21.80;99.90
39621;DHT22;25309;48.686;9.170;2022-10-16T16:58:07;21.70;99.90
39621;DHT22;25309;48.686;9.170;2022-10-16T17:00:34;21.60;99.90
39621;DHT22;25309;48.686;9.170;2022-10-16T17:03:01;21.60;99.90
39621;DHT22;25309;48.686;9.170;2022-10-16T17:05:28;21.50;99.90
39621;DHT22;25309;48.686;9.170;2022-10-16T17:07:55;21.40;99.90
39621;DHT22;25309;48.686;9.170;2022-10-16T17:10:22;21.40;99.90
39621;DHT22;25309;48.686;9.170;2022-10-16T17:12:50;21.30;99.90
39621;DHT22;25309;48.686;9.170;2022-10-16T17:15:17;21.20;99.90
39621;DHT22;25309;48.686;9.170;2022-10-16T17:17:44;21.20;99.90
39621;DHT22;25309;48.686;9.170;2022-10-16T17:20:11;21.10;99.90
39621;DHT22;25309;48.686;9.170;2022-10-16T17:22:38;21.10;99.90
39621;DHT22;25309;48.686;9.170;2022-10-16T17:25:06;21.00;99.90
39621;DHT22;25309;48.686;9.170;2022-10-16T17:27:34;21.00;99.90
39621;DHT22;25309;48.686;9.170;2022-10-16T17:30:04;20.90;99.90
39621;DHT22;25309;48.686;9.170;2022-10-16T17:32:32;20.90;99.90
39621;DHT22;25309;48.686;9.170;2022-10-16T17:34:59;20.80;99.90
39621;DHT22;25309;48.686;9.170;2022-10-16T17:37:26;20.70;99.90
39621;DHT22;25309;48.686;9.170;2022-10-16T17:39:53;20.60;99.90
39621;DHT22;25309;48.686;9.170;2022-10-16T17:42:20;20.60;99.90
39621;DHT22;25309;48.686;9.170;2022-10-16T17:44:46;20.60;99.90
39621;DHT22;25309;48.686;9.170;2022-10-16T17:47:15;20.50;99.90
39621;DHT22;25309;48.686;9.170;2022-10-16T17:49:42;20.50;99.90
39621;DHT22;25309;48.686;9.170;2022-10-16T17:52:09;20.40;99.90
39621;DHT22;25309;48.686;9.170;2022-10-16T17:54:37;20.30;99.90
39621;DHT22;25309;48.686;9.170;2022-10-16T17:57:05;20.30;99.90
39621;DHT22;25309;48.686;9.170;2022-10-16T17:59:32;20.20;99.90
39621;DHT22;25309;48.686;9.170;2022-10-16T18:01:59;20.20;99.90
39621;DHT22;25309;48.686;9.170;2022-10-16T18:04:28;20.10;99.90
39621;DHT22;25309;48.686;9.170;2022-10-16T18:06:55;20.10;99.90
39621;DHT22;25309;48.686;9.170;2022-10-16T18:09:22;20.00;99.90
39621;DHT22;25309;48.686;9.170;2022-10-16T18:11:49;19.90;99.90
39621;DHT22;25309;48.686;9.170;2022-10-16T18:14:21;19.80;99.90
39621;DHT22;25309;48.686;9.170;2022-10-16T18:16:48;19.80;99.90
39621;DHT22;25309;48.686;9.170;2022-10-16T18:19:16;19.70;99.90
39621;DHT22;25309;48.686;9.170;2022-10-16T18:21:44;19.70;99.90
39621;DHT22;25309;48.686;9.170;2022-10-16T18:24:11;19.60;99.90
39621;DHT22;25309;48.686;9.170;2022-10-16T18:26:38;19.60;99.90
39621;DHT22;25309;48.686;9.170;2022-10-16T18:29:05;19.60;99.90
39621;DHT22;25309;48.686;9.170;2022-10-16T18:31:32;19.50;99.90
39621;DHT22;25309;48.686;9.170;2022-10-16T18:34:01;19.50;99.90
39621;DHT22;25309;48.686;9.170;2022-10-16T18:36:29;19.40;99.90
39621;DHT22;25309;48.686;9.170;2022-10-16T18:39:01;19.40;99.90
39621;DHT22;25309;48.686;9.170;2022-10-16T18:41:29;19.30;99.90
39621;DHT22;25309;48.686;9.170;2022-10-16T18:43:58;19.30;99.90
39621;DHT22;25309;48.686;9.170;2022-10-16T18:46:25;19.20;99.90
39621;DHT22;25309;48.686;9.170;2022-10-16T18:48:54;19.20;99.90
39621;DHT22;25309;48.686;9.170;2022-10-16T18:51:24;19.20;99.90
39621;DHT22;25309;48.686;9.170;2022-10-16T18:53:53;19.20;99.90
39621;DHT22;25309;48.686;9.170;2022-10-16T18:56:22;19.10;99.90